Terminal Aerodrome Forecast
Issued by NWS

Home | Current Version | Previous Version | Text Only | Print | Product List | Glossary On
Versions: 1 2 3 4 5 6 7 8 9 10 11 12 13 14 15 16 17 18 19 20 21 22 23 24 25 26
000
FTUS42 KCAE 010500 CCA
TAFOGB
TAF COR
KOGB 010551Z 0106/0206 04003KT P6SM OVC008
      TEMPO 0108/0112 OVC004
     FM011500 08005KT P6SM SCT008 OVC015
     FM011800 08007KT P6SM VCSH OVC050=

USA.gov is the U.S. government's official web portal to all federal, state and local government web resources and services.